Time;durP1;ratioP1;P1;durP2;ratioP2;P2;SDS_P1;SDS_P2;PMS_P1;PMS_P2;Temp;Humidity;BMP_temperature;BMP_pressure;BME280_temperature;BME280_humidity;BME280_pressure;Samples;Min_cycle;Max_cycle;Signal;HPM_P1;HPM_P2
2023/12/24 00:00:27;;;;;;;6.27;5.47;;;;;;;21.98;31.68;94290.28;6159694;28;109617;-59
2023/12/24 00:03:30;;;;;;;6.00;5.10;;;;;;;21.98;31.04;94284.16;6157374;28;109218;-57
2023/12/24 00:06:34;;;;;;;6.20;5.60;;;;;;;21.99;31.58;94283.06;6145708;28;109335;-57
2023/12/24 00:09:38;;;;;;;7.30;5.67;;;;;;;21.98;31.46;94300.94;6163010;28;109371;-57
2023/12/24 00:12:41;;;;;;;5.33;4.83;;;;;;;21.98;31.06;94314.25;6162388;28;110605;-58
2023/12/24 00:15:44;;;;;;;5.90;5.40;;;;;;;21.97;31.39;94310.03;6149846;28;109084;-57
2023/12/24 00:18:47;;;;;;;6.30;5.57;;;;;;;21.95;31.42;94309.56;6152344;28;109309;-57
2023/12/24 00:21:52;;;;;;;5.70;5.20;;;;;;;21.98;31.75;94324.13;6163062;28;110067;-57
2023/12/24 00:24:55;;;;;;;5.87;5.27;;;;;;;21.97;31.15;94315.34;6163296;28;109817;-57
2023/12/24 00:27:59;;;;;;;5.13;4.63;;;;;;;21.99;31.47;94331.00;6157900;28;109270;-59
2023/12/24 00:31:02;;;;;;;5.73;5.13;;;;;;;21.99;31.45;94317.69;6155669;28;109132;-59
2023/12/24 00:34:05;;;;;;;5.80;5.30;;;;;;;22.00;31.44;94332.56;6140975;28;109233;-59
2023/12/24 00:37:10;;;;;;;5.53;4.97;;;;;;;22.00;31.39;94343.22;6152701;28;108814;-59
2023/12/24 00:40:13;;;;;;;5.40;4.90;;;;;;;21.99;31.29;94337.13;6152055;28;110162;-58
2023/12/24 00:43:16;;;;;;;5.53;4.33;;;;;;;21.99;31.71;94345.13;6162864;28;110297;-58
2023/12/24 00:46:19;;;;;;;5.37;4.33;;;;;;;21.99;31.67;94347.78;6156807;28;109281;-58
2023/12/24 00:49:24;;;;;;;5.47;4.70;;;;;;;21.98;31.40;94348.88;6140589;28;110141;-60
2023/12/24 00:52:29;;;;;;;5.00;4.50;;;;;;;21.99;31.08;94341.66;6151696;28;110163;-58
2023/12/24 00:55:32;;;;;;;5.00;4.50;;;;;;;22.01;31.66;94345.59;6145407;28;109475;-59
2023/12/24 00:58:35;;;;;;;5.20;4.70;;;;;;;22.04;31.47;94365.47;6161363;28;109156;-58
2023/12/24 01:01:39;;;;;;;6.00;4.47;;;;;;;22.03;31.77;94396.69;6160947;28;109499;-58
2023/12/24 01:04:42;;;;;;;5.30;4.47;;;;;;;22.05;31.77;94385.69;6153554;28;109236;-58
2023/12/24 01:07:46;;;;;;;4.10;3.70;;;;;;;22.05;31.81;94397.13;6160877;28;109216;-59
2023/12/24 01:10:49;;;;;;;4.90;4.40;;;;;;;22.04;32.00;94392.91;6161598;28;108974;-58
2023/12/24 01:13:55;;;;;;;4.77;4.00;;;;;;;22.06;31.59;94405.91;6150608;28;109064;-59
2023/12/24 01:17:00;;;;;;;4.80;4.30;;;;;;;22.07;31.59;94407.47;6148296;28;109182;-59
2023/12/24 01:20:13;;;;;;;5.70;4.57;;;;;;;22.03;32.03;94410.00;6160784;28;108835;-59
2023/12/24 01:23:17;;;;;;;5.03;4.53;;;;;;;22.05;32.01;94410.47;6161616;28;109530;-58
2023/12/24 01:26:21;;;;;;;4.17;3.77;;;;;;;22.06;31.66;94417.34;6143197;28;109499;-58
2023/12/24 01:29:24;;;;;;;5.40;4.10;;;;;;;22.06;32.21;94417.34;6161508;28;109091;-59
2023/12/24 01:32:27;;;;;;;4.20;3.80;;;;;;;22.05;31.79;94413.13;6159350;28;109168;-58
2023/12/24 01:35:30;;;;;;;3.80;3.30;;;;;;;22.05;32.12;94426.44;6160716;28;109482;-58
2023/12/24 01:38:35;;;;;;;4.43;4.03;;;;;;;22.03;31.80;94419.88;6151751;28;110829;-56
2023/12/24 01:41:38;;;;;;;4.17;3.67;;;;;;;22.01;31.94;94425.53;6161769;28;110216;-56
2023/12/24 01:44:41;;;;;;;5.03;3.80;;;;;;;22.02;32.20;94431.63;6156833;28;109329;-56
2023/12/24 01:47:45;;;;;;;3.53;3.23;;;;;;;22.01;31.95;94432.72;6144588;28;110180;-57
2023/12/24 01:50:57;;;;;;;4.77;3.77;;;;;;;21.98;32.20;94430.69;6161498;28;110264;-56
2023/12/24 01:54:02;;;;;;;4.00;3.60;;;;;;;21.99;31.71;94432.25;6153439;28;109366;-56
2023/12/24 01:57:08;;;;;;;4.63;3.33;;;;;;;21.99;32.07;94437.56;6156959;28;109007;-57
2023/12/24 02:00:12;;;;;;;3.90;3.33;;;;;;;21.99;31.87;94441.03;6149162;28;109123;-56
2023/12/24 02:03:17;;;;;;;3.27;2.97;;;;;;;21.99;32.00;94442.91;6161510;28;109044;-56
2023/12/24 02:06:20;;;;;;;4.10;3.40;;;;;;;21.98;31.65;94447.44;6159794;28;110834;-56
2023/12/24 02:09:25;;;;;;;3.40;2.90;;;;;;;21.97;32.15;94451.22;6143245;28;110004;-56
2023/12/24 02:12:28;;;;;;;3.50;3.20;;;;;;;22.00;31.98;94455.91;6145570;28;109233;-56
2023/12/24 02:15:31;;;;;;;3.37;2.67;;;;;;;21.99;31.79;94457.00;6144539;28;109117;-56
2023/12/24 02:18:34;;;;;;;3.73;2.97;;;;;;;22.00;31.83;94466.56;6160565;28;108883;-56
2023/12/24 02:21:39;;;;;;;3.13;2.33;;;;;;;22.00;31.75;94468.44;6154795;28;110890;-56
2023/12/24 02:24:42;;;;;;;3.37;2.63;;;;;;;22.00;31.62;94452.47;6155465;28;109565;-70
2023/12/24 02:27:50;;;;;;;3.53;2.73;;;;;;;21.99;31.82;94465.00;6158330;28;109135;-57
2023/12/24 02:30:58;;;;;;;2.87;2.60;;;;;;;22.00;31.89;94463.13;6159912;28;110252;-56
2023/12/24 02:34:03;;;;;;;3.00;2.40;;;;;;;21.98;31.68;94460.00;6149575;28;109084;-57
2023/12/24 02:37:09;;;;;;;2.80;2.23;;;;;;;21.98;31.56;94444.78;6150093;28;109494;-56
2023/12/24 02:40:12;;;;;;;2.63;2.07;;;;;;;22.00;32.10;94455.91;6146711;28;109206;-56
2023/12/24 02:43:15;;;;;;;2.90;2.60;;;;;;;22.00;31.65;94461.22;6154168;28;110222;-57
2023/12/24 02:46:18;;;;;;;3.97;2.40;;;;;;;22.01;31.53;94468.16;6148030;28;109122;-57
2023/12/24 02:49:22;;;;;;;3.57;2.30;;;;;;;22.01;31.95;94475.34;6159107;28;109920;-58
2023/12/24 02:52:26;;;;;;;2.20;2.00;;;;;;;22.01;31.53;94481.47;6145757;28;109282;-58
2023/12/24 02:55:29;;;;;;;2.70;2.10;;;;;;;22.01;31.52;94478.81;6154172;28;109178;-58
2023/12/24 02:58:32;;;;;;;2.43;2.07;;;;;;;22.00;31.46;94473.78;6153860;28;109262;-58
2023/12/24 03:01:35;;;;;;;2.47;2.10;;;;;;;22.03;31.39;94475.81;6159326;28;109089;-57
2023/12/24 03:04:39;;;;;;;4.17;2.33;;;;;;;22.10;31.32;94474.22;6159646;28;109041;-54
2023/12/24 03:07:43;;;;;;;2.73;2.27;;;;;;;22.22;31.23;94481.56;6148299;28;110154;-54
2023/12/24 03:10:47;;;;;;;3.63;2.00;;;;;;;22.26;31.39;94477.13;6159461;28;109221;-54
2023/12/24 03:13:50;;;;;;;2.57;1.97;;;;;;;22.29;31.12;94481.03;6160057;28;109259;-54
2023/12/24 03:16:54;;;;;;;2.60;1.90;;;;;;;22.29;31.32;94487.16;6160344;28;110477;-54
2023/12/24 03:19:58;;;;;;;2.50;1.80;;;;;;;22.30;31.19;94493.25;6132602;28;109612;-58
2023/12/24 03:23:03;;;;;;;2.40;1.87;;;;;;;22.31;31.69;94497.50;6151003;28;109042;-57
2023/12/24 03:26:06;;;;;;;3.03;2.20;;;;;;;22.31;31.07;94505.50;6164615;28;109494;-54
2023/12/24 03:29:12;;;;;;;2.93;2.00;;;;;;;22.32;31.22;94505.16;6165792;28;109213;-54
2023/12/24 03:32:15;;;;;;;2.17;1.80;;;;;;;22.33;31.11;94500.63;6146782;28;109206;-54
2023/12/24 03:35:18;;;;;;;1.83;1.60;;;;;;;22.33;31.10;94504.06;6140549;28;109061;-55
2023/12/24 03:38:23;;;;;;;2.97;1.87;;;;;;;22.34;31.16;94518.16;6151075;28;109097;-54
2023/12/24 03:41:26;;;;;;;2.07;1.60;;;;;;;22.33;31.21;94521.94;6157319;28;109141;-55
2023/12/24 03:44:29;;;;;;;2.60;1.97;;;;;;;22.36;31.17;94526.66;6161585;28;109247;-54
2023/12/24 03:47:32;;;;;;;2.33;1.90;;;;;;;22.35;30.78;94533.09;6162792;28;109300;-54
2023/12/24 03:50:35;;;;;;;2.07;1.77;;;;;;;22.36;31.07;94539.97;6140886;28;109180;-54
2023/12/24 03:53:40;;;;;;;2.23;1.57;;;;;;;22.36;30.95;94550.66;6144760;28;109345;-55
2023/12/24 03:56:43;;;;;;;4.07;1.73;;;;;;;22.36;31.06;94556.75;6170379;28;109248;-54
2023/12/24 03:59:49;;;;;;;2.13;1.33;;;;;;;22.36;31.28;94554.09;6174418;28;109055;-55
2023/12/24 04:02:54;;;;;;;2.40;1.80;;;;;;;22.36;31.42;94554.09;6172153;28;109087;-55
2023/12/24 04:05:58;;;;;;;2.20;1.40;;;;;;;22.36;31.41;94571.97;6165170;28;109285;-55
2023/12/24 04:09:02;;;;;;;1.90;1.50;;;;;;;22.36;31.48;94577.31;6168440;28;109295;-55
2023/12/24 04:12:06;;;;;;;2.00;1.40;;;;;;;22.37;31.16;94578.88;6168145;28;109163;-55
2023/12/24 04:15:10;;;;;;;2.43;1.47;;;;;;;22.36;31.17;94593.31;6168019;28;109201;-55
2023/12/24 04:18:13;;;;;;;2.00;1.60;;;;;;;22.36;31.07;94610.06;6164160;28;109396;-55
2023/12/24 04:21:17;;;;;;;2.30;1.47;;;;;;;22.35;31.52;94613.84;6170824;28;109379;-55
2023/12/24 04:24:21;;;;;;;1.93;1.40;;;;;;;22.36;31.58;94607.41;6167937;28;109019;-55
2023/12/24 04:27:25;;;;;;;2.23;1.60;;;;;;;22.38;31.23;94615.09;6157071;28;109338;-55
2023/12/24 04:30:28;;;;;;;1.80;1.27;;;;;;;22.37;31.25;94618.84;6160781;28;109245;-55
2023/12/24 04:33:31;;;;;;;2.67;1.50;;;;;;;22.36;30.98;94614.63;6153270;28;109099;-55
2023/12/24 04:36:34;;;;;;;2.20;1.70;;;;;;;22.37;31.34;94624.19;6161920;28;109172;-54
2023/12/24 04:39:38;;;;;;;1.60;1.20;;;;;;;22.34;31.43;94617.59;6150531;28;109273;-55
2023/12/24 04:42:42;;;;;;;2.40;1.77;;;;;;;22.36;31.04;94617.28;6161838;28;109149;-55
2023/12/24 04:45:45;;;;;;;1.80;1.40;;;;;;;22.33;31.02;94617.91;6162626;28;110289;-54
2023/12/24 04:48:48;;;;;;;2.30;1.70;;;;;;;22.38;31.55;94631.09;6160535;28;109289;-55
2023/12/24 04:51:51;;;;;;;2.07;1.53;;;;;;;22.36;31.46;94633.28;6149848;28;109235;-54
2023/12/24 04:54:55;;;;;;;2.20;1.77;;;;;;;22.37;30.83;94640.19;6161962;28;109516;-55
2023/12/24 04:57:59;;;;;;;2.13;1.30;;;;;;;22.36;31.00;94631.41;6161952;28;110122;-55
2023/12/24 05:01:05;;;;;;;4.83;1.60;;;;;;;22.37;31.17;94632.19;6153274;28;109394;-56
2023/12/24 05:04:08;;;;;;;2.03;1.47;;;;;;;22.38;30.88;94652.41;6157018;28;110157;-54
2023/12/24 05:07:11;;;;;;;1.80;1.37;;;;;;;22.38;31.28;94649.75;6161959;28;109047;-55
2023/12/24 05:10:16;;;;;;;1.90;1.20;;;;;;;22.37;31.17;94662.28;6161579;28;109384;-56
2023/12/24 05:13:19;;;;;;;2.10;1.43;;;;;;;22.35;31.24;94664.50;6151853;28;110195;-56
2023/12/24 05:16:22;;;;;;;2.50;1.10;;;;;;;22.36;31.30;94665.28;6161487;28;109105;-56
2023/12/24 05:19:25;;;;;;;2.50;1.53;;;;;;;22.36;30.79;94670.63;6161364;28;110255;-56
2023/12/24 05:22:28;;;;;;;1.60;1.27;;;;;;;22.36;31.17;94690.06;6152747;28;109104;-56
2023/12/24 05:25:32;;;;;;;2.57;1.57;;;;;;;22.36;31.04;94690.06;6151486;28;109649;-56
2023/12/24 05:28:36;;;;;;;1.90;1.40;;;;;;;22.34;30.67;94694.88;6160433;28;109111;-56
2023/12/24 05:31:39;;;;;;;1.80;1.20;;;;;;;22.35;30.64;94701.81;6161216;28;109366;-56
2023/12/24 05:34:43;;;;;;;3.70;1.40;;;;;;;22.35;31.00;94696.50;6156814;28;109103;-56
2023/12/24 05:37:46;;;;;;;1.70;1.20;;;;;;;22.37;31.01;94688.16;6155923;28;109426;-56
2023/12/24 05:40:51;;;;;;;1.87;1.27;;;;;;;22.35;30.53;94677.81;6160475;28;109317;-56
2023/12/24 05:43:54;;;;;;;2.77;1.30;;;;;;;22.36;30.79;94671.41;6151424;28;110065;-56
2023/12/24 05:46:57;;;;;;;1.90;1.20;;;;;;;22.38;30.65;94685.19;6145281;28;109264;-56
2023/12/24 05:50:00;;;;;;;2.70;1.20;;;;;;;22.39;30.62;94692.09;6158889;28;110207;-56
2023/12/24 05:53:04;;;;;;;1.83;1.10;;;;;;;22.40;30.95;94690.97;6160119;28;109760;-56
2023/12/24 05:56:08;;;;;;;1.50;1.10;;;;;;;22.40;30.90;94690.19;6148802;28;109757;-56
2023/12/24 05:59:11;;;;;;;3.33;1.30;;;;;;;22.39;30.88;94673.41;6144927;28;109149;-56
2023/12/24 06:02:15;;;;;;;1.57;1.00;;;;;;;22.39;31.29;94676.09;6160794;28;109133;-54
2023/12/24 06:05:18;;;;;;;2.30;1.10;;;;;;;22.35;31.43;94685.03;6161156;28;109222;-55
2023/12/24 06:08:21;;;;;;;1.57;0.90;;;;;;;22.29;31.90;94694.28;6158755;28;109102;-55
2023/12/24 06:11:26;;;;;;;1.87;1.00;;;;;;;22.22;31.62;94692.09;6148051;28;109218;-56
2023/12/24 06:14:29;;;;;;;2.70;1.20;;;;;;;22.22;32.12;94697.44;6147378;28;110474;-55
2023/12/24 06:17:32;;;;;;;3.43;1.20;;;;;;;22.26;32.05;94694.91;6158944;28;110278;-56
2023/12/24 06:20:37;;;;;;;3.93;1.20;;;;;;;22.26;32.16;94692.25;6148118;28;109823;-56
2023/12/24 06:23:40;;;;;;;3.30;1.67;;;;;;;22.28;32.21;94700.72;6147916;28;109224;-55
2023/12/24 06:26:45;;;;;;;4.73;2.00;;;;;;;22.22;32.17;94701.97;6156779;28;109196;-55
2023/12/24 06:29:48;;;;;;;4.27;2.00;;;;;;;22.27;32.27;94710.59;6159615;28;109144;-55
2023/12/24 06:32:51;;;;;;;4.00;2.20;;;;;;;22.26;32.25;94725.00;6148561;28;109127;-55
2023/12/24 06:35:54;;;;;;;3.17;1.93;;;;;;;22.26;31.82;94717.03;6157922;28;109067;-56
2023/12/24 06:38:58;;;;;;;4.73;2.17;;;;;;;22.25;32.05;94718.13;6159844;28;110538;-55
2023/12/24 06:42:02;;;;;;;3.10;1.83;;;;;;;22.24;31.94;94711.22;6156534;28;109351;-55
2023/12/24 06:45:11;;;;;;;7.80;2.07;;;;;;;22.24;32.64;94711.22;6144744;28;109226;-55
2023/12/24 06:48:14;;;;;;;2.70;1.80;;;;;;;22.25;32.38;94717.34;6159698;28;109456;-54
2023/12/24 06:51:17;;;;;;;3.83;1.80;;;;;;;22.28;32.25;94730.03;6136582;28;109202;-55
2023/12/24 06:54:20;;;;;;;2.60;1.70;;;;;;;22.28;32.24;94748.69;6138185;28;108843;-55
2023/12/24 06:57:25;;;;;;;3.20;1.60;;;;;;;22.28;32.03;94765.47;6156282;28;111303;-55
2023/12/24 07:00:28;;;;;;;2.90;1.70;;;;;;;22.28;32.76;94775.34;6158795;28;108985;-55
2023/12/24 07:03:31;;;;;;;2.90;1.50;;;;;;;22.27;32.41;94784.44;6141712;28;109082;-55
2023/12/24 07:06:34;;;;;;;3.93;1.87;;;;;;;22.24;32.81;94785.84;6149075;28;109118;-55
2023/12/24 07:09:37;;;;;;;9.13;2.43;;;;;;;22.20;32.63;94789.47;6148199;28;109336;-55
2023/12/24 07:12:41;;;;;;;20.40;3.30;;;;;;;22.24;33.50;94795.72;6160210;28;110246;-56
2023/12/24 07:15:48;;;;;;;17.07;3.27;;;;;;;22.27;33.48;94785.22;6163901;28;108997;-55
2023/12/24 07:18:51;;;;;;;11.73;2.87;;;;;;;22.24;33.44;94785.06;6152901;28;109063;-60
2023/12/24 07:21:54;;;;;;;7.03;2.03;;;;;;;22.16;33.30;94796.50;6161410;28;109602;-56
2023/12/24 07:24:57;;;;;;;5.17;3.23;;;;;;;21.98;32.37;94785.81;6160673;28;109120;-56
2023/12/24 07:28:02;;;;;;;7.50;3.43;;;;;;;22.02;32.30;94789.44;6161099;28;109224;-57
2023/12/24 07:31:05;;;;;;;8.20;2.90;;;;;;;22.09;32.55;94795.09;6147522;28;109854;-56
2023/12/24 07:34:08;;;;;;;10.23;2.90;;;;;;;22.11;32.58;94792.09;6163966;28;109242;-57
2023/12/24 07:37:13;;;;;;;5.03;2.97;;;;;;;22.10;32.61;94803.88;6164825;28;110054;-56
2023/12/24 07:40:17;;;;;;;4.70;2.47;;;;;;;22.13;32.30;94805.13;6154333;28;109446;-56
2023/12/24 07:43:23;;;;;;;5.97;2.83;;;;;;;22.16;32.73;94799.94;6145551;28;109102;-55
2023/12/24 07:46:28;;;;;;;7.47;2.77;;;;;;;22.19;32.98;94803.88;6164473;28;109229;-58
2023/12/24 07:49:33;;;;;;;8.00;2.53;;;;;;;22.23;32.63;94802.16;6164560;28;110048;-57
2023/12/24 07:52:36;;;;;;;7.50;2.77;;;;;;;22.20;33.09;94792.13;6140665;28;109196;-57
2023/12/24 07:55:40;;;;;;;6.33;3.00;;;;;;;22.23;32.62;94794.16;6163509;28;110200;-57
2023/12/24 07:58:45;;;;;;;10.17;2.90;;;;;;;22.26;32.48;94782.88;6163411;28;109135;-56
2023/12/24 08:01:48;;;;;;;6.53;3.00;;;;;;;22.38;32.29;94789.16;6139471;28;109081;-57
2023/12/24 08:04:54;;;;;;;7.27;3.03;;;;;;;22.41;33.02;94795.75;6152360;28;109534;-61
2023/12/24 08:07:57;;;;;;;8.33;2.70;;;;;;;22.45;32.62;94806.56;6162788;28;110039;-56
2023/12/24 08:11:00;;;;;;;6.37;2.80;;;;;;;22.47;32.75;94809.69;6163489;28;109189;-57
2023/12/24 08:14:17;;;;;;;7.47;2.60;;;;;;;22.44;33.61;94816.44;6153167;28;109045;-60
2023/12/24 08:17:20;;;;;;;4.60;2.63;;;;;;;22.56;33.12;94808.59;6163290;28;109105;-58
2023/12/24 08:20:24;;;;;;;6.73;2.67;;;;;;;22.62;33.13;94774.59;6163317;28;109107;-57
2023/12/24 08:23:27;;;;;;;8.80;2.80;;;;;;;22.65;33.25;94780.06;6148831;28;109055;-56
2023/12/24 08:26:30;;;;;;;7.40;2.80;;;;;;;22.64;33.19;94781.16;6152071;28;110863;-56
2023/12/24 08:29:34;;;;;;;5.73;2.30;;;;;;;22.65;33.57;94781.94;6163406;28;109289;-56
2023/12/24 08:32:38;;;;;;;6.67;2.87;;;;;;;22.68;33.54;94762.66;6163086;28;109000;-55
2023/12/24 08:35:41;;;;;;;7.50;3.20;;;;;;;22.64;33.10;94767.06;6161556;28;109993;-56
2023/12/24 08:38:44;;;;;;;10.33;3.90;;;;;;;22.63;32.51;94765.47;6150189;28;109055;-57
2023/12/24 08:41:47;;;;;;;9.10;3.87;;;;;;;22.55;32.73;94767.03;6153442;28;109730;-57
2023/12/24 08:44:52;;;;;;;5.80;3.27;;;;;;;22.55;33.20;94779.59;6162321;28;110286;-56
2023/12/24 08:47:55;;;;;;;5.87;3.23;;;;;;;22.47;33.49;94799.81;6157243;28;109245;-57
2023/12/24 08:51:00;;;;;;;7.17;3.03;;;;;;;22.49;33.47;94792.28;6155116;28;109122;-57
2023/12/24 08:57:38;;;;;;;6.47;3.30;;;;;;;22.38;33.35;94783.03;5986447;27;109057;-57
2023/12/24 09:00:42;;;;;;;5.17;3.20;;;;;;;22.34;32.81;94772.19;6054328;28;110068;-57
2023/12/24 09:03:45;;;;;;;6.70;3.40;;;;;;;22.31;32.67;94770.16;6154979;28;109090;-58
2023/12/24 09:06:48;;;;;;;5.10;2.70;;;;;;;22.44;32.51;94767.66;6157306;28;109114;-57
2023/12/24 09:09:52;;;;;;;4.37;2.90;;;;;;;22.51;32.46;94771.41;6157509;28;108992;-57
2023/12/24 09:12:57;;;;;;;4.73;3.10;;;;;;;22.65;32.34;94764.06;6151256;28;109999;-58
2023/12/24 09:16:00;;;;;;;4.97;2.83;;;;;;;22.67;32.55;94771.75;6156388;28;109343;-57
2023/12/24 09:19:03;;;;;;;3.30;2.70;;;;;;;22.68;32.63;94758.13;6158522;28;109128;-57
2023/12/24 09:22:06;;;;;;;3.93;3.17;;;;;;;22.66;33.00;94764.84;6154860;28;108985;-58
2023/12/24 09:25:09;;;;;;;4.83;3.60;;;;;;;22.72;32.27;94773.50;6154200;28;108943;-57
2023/12/24 09:28:14;;;;;;;6.63;4.07;;;;;;;22.74;32.45;94765.94;6157658;28;109025;-55
2023/12/24 09:31:17;;;;;;;10.90;4.53;;;;;;;22.85;32.22;94773.31;6154376;28;109429;-56
2023/12/24 09:34:20;;;;;;;7.97;5.27;;;;;;;22.95;31.82;94767.63;6121716;28;109145;-55
2023/12/24 09:37:25;;;;;;;4.83;4.30;;;;;;;23.10;32.06;94765.56;6135969;28;110949;-55
2023/12/24 09:40:28;;;;;;;20.27;5.90;;;;;;;23.10;32.67;94753.00;6140884;28;108932;-55
2023/12/24 09:43:34;;;;;;;18.93;8.23;;;;;;;23.00;32.69;94766.66;6145838;28;112814;-56
2023/12/24 09:46:37;;;;;;;13.33;7.13;;;;;;;23.13;32.60;94756.91;6131345;28;109692;-55
2023/12/24 09:49:40;;;;;;;11.23;6.40;;;;;;;23.23;32.08;94751.22;6151296;28;110127;-57
2023/12/24 09:52:45;;;;;;;9.47;6.20;;;;;;;23.22;32.46;94750.44;6142492;28;109063;-58
2023/12/24 09:55:48;;;;;;;11.27;6.57;;;;;;;23.32;32.33;94745.88;6133225;28;109881;-57
2023/12/24 09:58:53;;;;;;;8.97;6.17;;;;;;;23.39;32.35;94738.16;6132990;28;109535;-56
2023/12/24 10:01:57;;;;;;;8.23;6.10;;;;;;;23.39;32.17;94727.47;6153816;28;108733;-57
2023/12/24 10:05:02;;;;;;;7.20;6.13;;;;;;;23.42;32.72;94714.25;6149847;28;110109;-56
2023/12/24 10:08:06;;;;;;;9.60;6.17;;;;;;;23.45;32.75;94710.94;6116276;28;110072;-59
2023/12/24 10:11:20;;;;;;;9.63;5.57;;;;;;;23.45;32.84;94692.25;6134162;28;110122;-57
2023/12/24 10:14:24;;;;;;;9.57;5.40;;;;;;;23.47;32.47;94687.38;6127179;28;108980;-57
2023/12/24 10:17:30;;;;;;;6.70;5.40;;;;;;;23.47;32.89;94686.59;6121423;28;109124;-57
2023/12/24 10:20:33;;;;;;;7.60;5.70;;;;;;;23.43;33.01;94691.78;6106054;28;108965;-57
2023/12/24 10:23:37;;;;;;;8.90;5.67;;;;;;;23.44;33.28;94687.22;6134314;28;109041;-57
2023/12/24 10:26:41;;;;;;;9.43;6.13;;;;;;;23.45;33.67;94680.78;6132567;28;109940;-57
2023/12/24 10:29:45;;;;;;;8.50;5.53;;;;;;;23.45;33.23;94678.13;6122748;28;109003;-58
2023/12/24 10:32:48;;;;;;;9.80;6.50;;;;;;;23.47;33.67;94659.88;6114133;28;111302;-57
2023/12/24 10:35:57;;;;;;;8.83;6.40;;;;;;;23.52;33.79;94646.31;6122901;28;109168;-57
2023/12/24 10:39:00;;;;;;;7.23;5.80;;;;;;;23.55;34.06;94640.38;6129750;28;109204;-58
2023/12/24 10:42:03;;;;;;;5.83;5.23;;;;;;;23.56;34.01;94648.03;6115243;28;109324;-57
2023/12/24 10:45:09;;;;;;;6.50;5.47;;;;;;;23.56;34.44;94637.38;6133827;28;109044;-57
2023/12/24 10:48:12;;;;;;;9.37;6.30;;;;;;;23.60;34.85;94643.63;6132426;28;109980;-56
2023/12/24 10:51:16;;;;;;;10.30;5.93;;;;;;;23.64;35.03;94658.97;6122732;28;108764;-57
2023/12/24 10:54:19;;;;;;;10.37;6.23;;;;;;;23.64;35.55;94656.31;6109309;28;110536;-57
2023/12/24 10:57:35;;;;;;;9.23;7.13;;;;;;;23.75;35.64;94646.81;6123677;28;108943;-57
2023/12/24 11:00:40;;;;;;;10.60;8.60;;;;;;;23.78;35.87;94648.84;6128860;28;109176;-58
2023/12/24 11:03:48;;;;;;;11.40;8.80;;;;;;;23.78;36.76;94644.28;6126447;28;109046;-57
2023/12/24 11:06:52;;;;;;;13.20;8.87;;;;;;;23.73;36.40;94641.03;6109976;28;109257;-57
2023/12/24 11:09:55;;;;;;;9.47;8.57;;;;;;;23.64;36.78;94643.75;6128092;28;110872;-57
2023/12/24 11:12:58;;;;;;;10.90;8.10;;;;;;;23.56;36.39;94637.38;6126958;28;109048;-57
2023/12/24 11:16:12;;;;;;;10.43;8.20;;;;;;;23.51;36.21;94640.22;6124993;28;109189;-57
2023/12/24 11:19:25;;;;;;;9.30;8.23;;;;;;;23.42;36.50;94649.41;6137683;28;111075;-57
2023/12/24 11:22:28;;;;;;;9.00;8.10;;;;;;;23.39;36.53;94642.03;6123454;28;109293;-56
2023/12/24 11:25:36;;;;;;;9.80;7.60;;;;;;;23.30;36.43;94637.50;6119081;28;109028;-57
2023/12/24 11:28:39;;;;;;;10.00;8.03;;;;;;;23.26;36.79;94644.59;6114216;28;110111;-57
2023/12/24 11:31:43;;;;;;;9.70;6.87;;;;;;;23.22;36.72;94630.31;6123485;28;109065;-57
2023/12/24 11:34:47;;;;;;;8.00;6.80;;;;;;;23.20;36.73;94639.75;6136904;28;109052;-57
2023/12/24 11:37:50;;;;;;;8.57;7.07;;;;;;;23.18;36.33;94626.72;6136781;28;112068;-56
2023/12/24 11:41:05;;;;;;;7.53;6.83;;;;;;;22.95;35.64;94636.88;6114223;28;110252;-56
2023/12/24 11:44:08;;;;;;;6.83;4.03;;;;;;;22.49;33.90;94642.19;6115395;28;110873;-55
2023/12/24 11:47:19;;;;;;;6.77;4.80;;;;;;;22.49;34.71;94626.19;6118999;28;109063;-53
2023/12/24 11:50:23;;;;;;;6.10;3.97;;;;;;;22.88;34.07;94627.81;6112985;28;110404;-54
2023/12/24 11:53:26;;;;;;;4.73;3.87;;;;;;;23.20;34.38;94624.53;6127973;28;110199;-52
2023/12/24 11:56:30;;;;;;;6.07;4.03;;;;;;;23.37;34.47;94628.22;6126142;28;110111;-53
2023/12/24 11:59:33;;;;;;;6.00;4.17;;;;;;;23.28;34.61;94631.69;6130129;28;109273;-58
2023/12/24 12:02:38;;;;;;;8.20;3.60;;;;;;;23.35;34.47;94633.88;6113189;28;109160;-52
2023/12/24 12:05:41;;;;;;;6.77;3.57;;;;;;;23.40;34.63;94632.91;6127129;28;110331;-53
2023/12/24 12:08:46;;;;;;;5.33;3.67;;;;;;;23.46;34.18;94626.28;6131975;28;108928;-53
2023/12/24 12:11:50;;;;;;;4.27;3.40;;;;;;;23.46;34.45;94613.69;6131818;28;109060;-55
2023/12/24 12:14:53;;;;;;;4.63;3.30;;;;;;;23.48;34.73;94624.84;6114580;28;110085;-55
2023/12/24 12:17:58;;;;;;;3.50;3.03;;;;;;;23.48;34.40;94608.81;6132901;28;109233;-55
2023/12/24 12:21:01;;;;;;;4.93;3.60;;;;;;;23.49;34.56;94623.72;6126894;28;108778;-55
2023/12/24 12:24:05;;;;;;;7.60;3.77;;;;;;;23.49;35.24;94636.31;6118473;28;109054;-54
2023/12/24 12:27:08;;;;;;;4.30;3.23;;;;;;;23.46;35.21;94632.38;6124778;28;109251;-54
2023/12/24 12:30:12;;;;;;;3.17;2.47;;;;;;;23.46;35.09;94628.94;6133151;28;109178;-55
2023/12/24 12:33:17;;;;;;;3.03;2.67;;;;;;;23.48;35.16;94618.72;6131403;28;109217;-55
2023/12/24 12:36:20;;;;;;;4.17;3.23;;;;;;;23.52;34.94;94614.28;6112229;28;111590;-56
2023/12/24 12:39:24;;;;;;;5.27;2.90;;;;;;;23.48;35.30;94630.19;6125376;28;109431;-55
2023/12/24 12:42:28;;;;;;;3.80;3.17;;;;;;;23.48;35.03;94613.38;6131209;28;109140;-55
2023/12/24 12:45:44;;;;;;;3.83;2.80;;;;;;;23.51;35.26;94639.44;6122828;28;110441;-55
2023/12/24 12:48:49;;;;;;;3.27;2.60;;;;;;;23.50;35.48;94629.84;6128004;28;108940;-56
2023/12/24 12:51:53;;;;;;;3.23;2.40;;;;;;;23.49;35.38;94623.72;6118411;28;109014;-55
2023/12/24 12:55:02;;;;;;;3.00;2.70;;;;;;;23.49;35.13;94633.63;6128993;28;108959;-55
2023/12/24 12:58:12;;;;;;;3.57;2.83;;;;;;;23.40;35.67;94631.03;6125365;28;110344;-58
2023/12/24 13:01:16;;;;;;;3.40;2.73;;;;;;;23.28;35.39;94612.22;6129851;28;108955;-58
2023/12/24 13:04:24;;;;;;;3.13;2.83;;;;;;;23.19;35.71;94612.28;6118386;28;109182;-57
2023/12/24 13:07:30;;;;;;;6.20;2.63;;;;;;;23.16;35.42;94618.25;6128516;28;109023;-58
2023/12/24 13:10:35;;;;;;;3.57;2.67;;;;;;;23.14;35.44;94625.78;6124439;28;109114;-58
2023/12/24 13:13:38;;;;;;;4.50;2.57;;;;;;;23.13;35.15;94624.22;6127722;28;108982;-58
2023/12/24 13:16:42;;;;;;;2.60;2.40;;;;;;;23.13;35.53;94618.88;6122669;28;110261;-57
2023/12/24 13:19:48;;;;;;;2.97;2.30;;;;;;;23.16;35.34;94602.22;6134689;28;110040;-54
2023/12/24 13:22:53;;;;;;;3.90;2.53;;;;;;;23.28;35.34;94614.88;6117118;28;109856;-54
2023/12/24 13:25:57;;;;;;;2.70;2.40;;;;;;;23.34;35.03;94608.28;6128538;28;110719;-54
2023/12/24 13:29:00;;;;;;;4.10;2.23;;;;;;;23.39;35.53;94621.44;6121561;28;110277;-55
2023/12/24 13:32:03;;;;;;;2.90;2.30;;;;;;;23.41;35.32;94623.78;6119873;28;109055;-55
2023/12/24 13:35:08;;;;;;;3.30;2.50;;;;;;;23.39;35.41;94616.13;6117812;28;109250;-55
2023/12/24 13:38:13;;;;;;;2.97;2.10;;;;;;;23.40;35.49;94611.56;6124497;28;109250;-55
2023/12/24 13:41:17;;;;;;;2.67;1.90;;;;;;;23.41;35.62;94621.13;6123948;28;110034;-55
2023/12/24 13:44:20;;;;;;;3.07;1.97;;;;;;;23.41;35.51;94613.13;6113326;28;109076;-54
2023/12/24 13:47:23;;;;;;;2.50;1.87;;;;;;;23.40;35.77;94603.53;6130072;28;109025;-54
2023/12/24 13:50:28;;;;;;;3.17;2.50;;;;;;;23.41;36.13;94607.78;6128972;28;109028;-57
2023/12/24 13:53:31;;;;;;;4.30;2.50;;;;;;;23.41;35.90;94613.13;6127019;28;110047;-55
2023/12/24 13:56:35;;;;;;;2.90;2.00;;;;;;;23.39;36.30;94599.31;6109976;28;109278;-54
2023/12/24 13:59:39;;;;;;;2.20;2.00;;;;;;;23.42;35.68;94612.00;6129879;28;110035;-56
2023/12/24 14:02:42;;;;;;;2.70;2.40;;;;;;;23.44;35.73;94605.22;6126508;28;109219;-54
2023/12/24 14:05:47;;;;;;;3.40;2.67;;;;;;;23.48;36.12;94592.00;6125326;28;110615;-55
2023/12/24 14:08:51;;;;;;;3.23;2.27;;;;;;;23.49;36.23;94591.69;6123637;28;108954;-55
2023/12/24 14:11:54;;;;;;;2.80;2.40;;;;;;;23.48;36.74;94606.13;6125254;28;109077;-55
2023/12/24 14:14:57;;;;;;;4.90;2.60;;;;;;;23.39;36.42;94605.44;6122764;28;109224;-55
2023/12/24 14:18:02;;;;;;;2.90;2.50;;;;;;;23.42;36.56;94604.00;6115239;28;110125;-55